createdAt,value
2018-12-01T00:02:14.560Z,1.90
2018-12-01T00:13:13.853Z,1.50
2018-12-01T00:18:07.236Z,1.50
2018-12-01T00:23:00.625Z,1.67
2018-12-01T00:27:54.003Z,1.80
2018-12-01T00:32:47.961Z,1.67
2018-12-01T00:37:41.352Z,1.40
2018-12-01T00:42:34.754Z,1.37
2018-12-01T00:47:28.122Z,1.77
2018-12-01T00:52:21.506Z,1.70
2018-12-01T00:57:14.887Z,1.93
2018-12-01T01:02:27.597Z,1.50
2018-12-01T01:07:20.978Z,2.17
2018-12-01T01:12:14.373Z,1.47
2018-12-01T01:17:07.792Z,1.20
2018-12-01T01:22:01.274Z,1.87
2018-12-01T01:26:54.668Z,1.83
2018-12-01T01:31:48.092Z,1.67
2018-12-01T01:36:41.478Z,1.90
2018-12-01T01:41:34.931Z,1.63
2018-12-01T01:46:28.308Z,1.90
2018-12-01T01:51:21.681Z,1.60
2018-12-01T01:56:15.071Z,1.77
2018-12-01T02:01:08.783Z,1.90
2018-12-01T02:06:02.176Z,1.67
2018-12-01T02:10:55.612Z,1.93
2018-12-01T02:15:49.014Z,1.70
2018-12-01T02:20:42.387Z,1.53
2018-12-01T02:25:35.783Z,2.03
2018-12-01T02:30:29.198Z,1.80
2018-12-01T02:35:23.565Z,2.20
2018-12-01T02:40:16.957Z,2.10
2018-12-01T02:45:28.620Z,1.77
2018-12-01T02:50:28.780Z,1.97
2018-12-01T02:55:22.187Z,2.20
2018-12-01T03:00:15.538Z,1.70
2018-12-01T03:05:12.200Z,2.10
2018-12-01T03:10:12.406Z,1.63
2018-12-01T03:15:17.355Z,1.70
2018-12-01T03:20:11.356Z,1.90
2018-12-01T03:25:05.239Z,1.53
2018-12-01T03:29:58.621Z,1.90
2018-12-01T03:34:52.005Z,1.67
2018-12-01T03:39:45.427Z,1.50
2018-12-01T03:44:38.806Z,1.97
2018-12-01T03:49:32.186Z,1.83
2018-12-01T03:54:25.560Z,2.17
2018-12-01T03:59:18.947Z,1.67
2018-12-01T04:04:12.324Z,1.50
2018-12-01T04:09:23.676Z,1.60
2018-12-01T04:14:17.110Z,1.70
2018-12-01T04:19:10.598Z,1.87
2018-12-01T04:24:03.981Z,1.97
2018-12-01T04:28:57.368Z,1.80
2018-12-01T04:33:50.759Z,2.10
2018-12-01T04:38:44.131Z,2.10
2018-12-01T04:43:37.504Z,2.07
2018-12-01T04:48:30.951Z,1.50
2018-12-01T04:53:24.325Z,1.37
2018-12-01T04:58:17.715Z,1.57
2018-12-01T05:03:11.091Z,1.67
2018-12-01T05:08:04.471Z,1.60
2018-12-01T05:12:57.856Z,1.67
2018-12-01T05:17:51.231Z,1.57
2018-12-01T05:22:44.663Z,2.13
2018-12-01T05:27:38.075Z,1.77
2018-12-01T05:38:37.485Z,2.10
2018-12-01T05:43:30.878Z,1.47
2018-12-01T05:48:24.367Z,2.00
2018-12-01T05:53:17.740Z,1.60
2018-12-01T05:58:11.132Z,1.23
2018-12-01T06:03:05.266Z,1.63
2018-12-01T06:07:58.667Z,2.03
2018-12-01T06:12:52.618Z,1.60
2018-12-01T06:17:45.997Z,1.90
2018-12-01T06:22:39.435Z,1.57
2018-12-01T06:27:32.825Z,1.70
2018-12-01T06:32:26.220Z,1.93
2018-12-01T06:37:19.609Z,1.70
2018-12-01T06:42:12.991Z,1.70
2018-12-01T06:47:06.561Z,1.93
2018-12-01T06:51:59.961Z,1.40
2018-12-01T06:56:53.354Z,1.63
2018-12-01T07:01:49.760Z,1.47
2018-12-01T07:06:43.138Z,1.77
2018-12-01T07:11:36.665Z,1.80
2018-12-01T07:16:30.054Z,1.97
2018-12-01T07:21:23.466Z,1.70
2018-12-01T07:26:16.952Z,1.80
2018-12-01T07:31:10.326Z,1.53
2018-12-01T07:36:03.781Z,1.30
2018-12-01T07:40:57.201Z,1.60
2018-12-01T07:45:50.638Z,1.57
2018-12-01T07:50:44.010Z,1.57
2018-12-01T07:55:37.420Z,1.40
2018-12-01T08:00:30.855Z,1.90
2018-12-01T08:05:24.264Z,1.60
2018-12-01T08:10:17.647Z,1.50
2018-12-01T08:15:14.298Z,1.57
2018-12-01T08:20:08.431Z,1.67
2018-12-01T08:25:01.811Z,1.63
2018-12-01T08:29:55.238Z,1.60
2018-12-01T08:34:48.637Z,1.63
2018-12-01T08:39:42.049Z,1.50
2018-12-01T08:44:35.443Z,1.57
2018-12-01T08:49:28.870Z,1.60
2018-12-01T08:54:22.296Z,1.73
2018-12-01T08:59:15.724Z,1.63
2018-12-01T09:04:09.105Z,1.37
2018-12-01T09:09:02.525Z,1.90
2018-12-01T09:13:55.953Z,1.73
2018-12-01T09:18:49.368Z,1.40
2018-12-01T09:23:42.822Z,1.37
2018-12-01T09:28:36.284Z,1.53
2018-12-01T09:33:29.658Z,1.50
2018-12-01T09:38:24.172Z,1.83
2018-12-01T09:43:16.485Z,1.30
2018-12-01T09:48:09.897Z,1.40
2018-12-01T09:53:03.944Z,1.70
2018-12-01T09:57:57.706Z,1.80
2018-12-01T10:02:51.114Z,1.57
2018-12-01T10:07:44.514Z,1.40
2018-12-01T10:12:37.983Z,1.40
2018-12-01T10:17:31.437Z,1.53
2018-12-01T10:22:25.018Z,1.40
2018-12-01T10:27:18.475Z,1.47
2018-12-01T10:32:11.883Z,1.80
2018-12-01T10:37:05.402Z,1.63
2018-12-01T10:48:06.077Z,1.53
2018-12-01T10:52:59.565Z,1.33
2018-12-01T10:57:56.759Z,1.30
2018-12-01T11:03:04.195Z,1.70
2018-12-01T11:07:57.623Z,1.53
2018-12-01T11:12:51.247Z,1.30
2018-12-01T11:17:44.733Z,1.40
2018-12-01T11:22:38.188Z,1.33
2018-12-01T11:27:31.603Z,1.90
2018-12-01T11:32:25.120Z,1.47
2018-12-01T11:37:18.510Z,1.40
2018-12-01T11:42:11.918Z,1.60
2018-12-01T11:47:05.687Z,1.90
2018-12-01T11:51:59.150Z,1.50
2018-12-01T11:56:52.590Z,1.57
2018-12-01T12:01:46.010Z,2.00
2018-12-01T12:06:39.476Z,1.50
2018-12-01T12:11:32.925Z,1.53
2018-12-01T12:16:26.357Z,1.70
2018-12-01T12:21:19.782Z,1.40
2018-12-01T12:42:18.207Z,1.80
2018-12-01T12:47:11.620Z,1.60
2018-12-01T12:52:05.472Z,1.63
2018-12-01T12:56:59.270Z,2.10
2018-12-01T13:01:52.576Z,1.53
2018-12-01T13:06:45.985Z,1.70
2018-12-01T13:11:39.398Z,1.60
2018-12-01T13:16:32.788Z,1.90
2018-12-01T13:21:26.564Z,1.80
2018-12-01T13:26:19.965Z,1.77
2018-12-01T13:31:13.789Z,1.87
2018-12-01T13:36:07.507Z,1.90
2018-12-01T13:47:07.540Z,1.80
2018-12-01T13:52:00.903Z,1.87
2018-12-01T13:56:54.295Z,1.50
2018-12-01T14:01:47.731Z,2.00
2018-12-01T14:06:41.501Z,1.90
2018-12-01T14:11:35.369Z,2.23
2018-12-01T14:16:29.133Z,2.47
2018-12-01T14:21:22.486Z,2.20
2018-12-01T14:26:16.215Z,2.17
2018-12-01T14:31:51.755Z,1.80
2018-12-01T14:36:45.184Z,1.77
2018-12-01T14:47:44.646Z,1.90
2018-12-01T14:57:56.364Z,2.27
2018-12-01T15:02:50.125Z,1.93
2018-12-01T15:07:43.905Z,2.10
2018-12-01T15:12:37.289Z,2.40
2018-12-01T15:17:30.783Z,2.20
2018-12-01T15:22:24.228Z,2.33
2018-12-01T15:27:17.634Z,2.03
2018-12-01T15:32:11.038Z,2.23
2018-12-01T15:37:04.586Z,2.27
2018-12-01T15:41:57.973Z,2.80
2018-12-01T15:46:51.632Z,2.10
2018-12-01T15:51:45.050Z,2.80
2018-12-01T15:56:38.448Z,2.35
2018-12-01T16:01:31.875Z,2.40
2018-12-01T16:06:25.482Z,2.20
2018-12-01T16:11:19.076Z,2.00
2018-12-01T16:16:12.453Z,2.23
2018-12-01T16:21:05.916Z,1.93
2018-12-01T16:25:59.300Z,2.17
2018-12-01T16:30:52.777Z,2.10
2018-12-01T16:35:46.230Z,1.60
2018-12-01T16:40:59.072Z,2.20
2018-12-01T16:45:52.659Z,2.00
2018-12-01T16:50:46.094Z,1.77
2018-12-01T16:55:39.603Z,1.80
2018-12-01T17:00:33.034Z,2.10
2018-12-01T17:05:27.255Z,1.83
2018-12-01T17:10:21.014Z,2.00
2018-12-01T17:15:14.938Z,1.97
2018-12-01T17:20:11.594Z,1.83
2018-12-01T17:25:06.239Z,2.10
2018-12-01T17:29:59.640Z,2.20
2018-12-01T17:34:53.059Z,1.80
2018-12-01T17:39:46.497Z,1.90
2018-12-01T17:44:39.915Z,1.60
2018-12-01T17:49:33.312Z,1.63
2018-12-01T17:54:26.716Z,1.73
2018-12-01T17:59:20.122Z,1.42
2018-12-01T18:04:13.592Z,1.77
2018-12-01T18:09:07.743Z,2.03
2018-12-01T18:20:20.851Z,1.80
2018-12-01T18:25:14.304Z,1.53
2018-12-01T18:30:26.619Z,1.77
2018-12-01T18:35:20.056Z,1.50
2018-12-01T18:40:17.227Z,1.67
2018-12-01T18:45:11.538Z,1.50
2018-12-01T18:50:06.127Z,1.80
2018-12-01T18:54:59.531Z,1.43
2018-12-01T18:59:52.942Z,1.57
2018-12-01T19:04:46.395Z,1.30
2018-12-01T19:09:39.807Z,1.70
2018-12-01T19:14:33.208Z,1.13
2018-12-01T19:19:27.680Z,1.30
2018-12-01T19:24:21.146Z,1.30
2018-12-01T19:29:14.569Z,1.30
2018-12-01T19:34:08.014Z,1.20
2018-12-01T19:39:03.877Z,1.30
2018-12-01T19:43:57.279Z,1.30
2018-12-01T19:48:51.123Z,1.40
2018-12-01T19:53:44.511Z,1.20
2018-12-01T19:58:37.944Z,1.40
2018-12-01T20:09:37.308Z,1.30
2018-12-01T20:14:30.773Z,1.60
2018-12-01T20:19:24.206Z,1.20
2018-12-01T20:24:17.640Z,1.40
2018-12-01T20:29:11.054Z,1.40
2018-12-01T20:34:04.486Z,1.50
2018-12-01T20:39:26.533Z,1.27
2018-12-01T20:44:20.017Z,1.20
2018-12-01T20:49:13.453Z,1.40
2018-12-01T20:54:35.987Z,1.33
2018-12-01T20:59:29.443Z,1.60
2018-12-01T21:04:22.862Z,1.47
2018-12-01T21:09:16.257Z,1.50
2018-12-01T21:14:09.685Z,1.57
2018-12-01T21:19:03.127Z,1.37
2018-12-01T21:23:56.536Z,1.30
2018-12-01T21:28:50.213Z,1.10
2018-12-01T21:33:43.611Z,1.33
2018-12-01T21:38:38.893Z,1.43
2018-12-01T21:43:32.272Z,1.30
2018-12-01T21:48:25.655Z,1.00
2018-12-01T21:53:20.012Z,1.30
2018-12-01T21:58:13.872Z,1.40
2018-12-01T22:03:07.871Z,1.10
2018-12-01T22:08:01.279Z,1.33
2018-12-01T22:12:54.712Z,1.10
2018-12-01T22:17:48.116Z,1.50
2018-12-01T22:22:41.546Z,0.90
2018-12-01T22:27:34.994Z,1.20
2018-12-01T22:32:28.377Z,1.40
2018-12-01T22:37:21.778Z,1.23
2018-12-01T22:42:15.214Z,1.10
2018-12-01T22:47:08.674Z,1.30
2018-12-01T22:52:02.073Z,1.10
2018-12-01T22:56:55.505Z,1.10
2018-12-01T23:01:48.910Z,0.97
2018-12-01T23:06:42.347Z,1.10
2018-12-01T23:11:35.737Z,1.40
2018-12-01T23:16:29.138Z,1.07
2018-12-01T23:21:22.537Z,1.10
2018-12-01T23:26:15.943Z,1.00
2018-12-01T23:31:09.386Z,1.27
2018-12-01T23:36:02.800Z,1.00
2018-12-01T23:40:56.213Z,1.20
2018-12-01T23:51:55.642Z,1.07
2018-12-01T23:56:49.075Z,1.20
